Time;durP1;ratioP1;P1;durP2;ratioP2;P2;SDS_P1;SDS_P2;PMS_P1;PMS_P2;Temp;Humidity;BMP_temperature;BMP_pressure;BME280_temperature;BME280_humidity;BME280_pressure;Samples;Min_cycle;Max_cycle;Signal;HPM_P1;HPM_P2
2020/12/02 00:01:16;;;;;;;82.17;35.17;;;;;;;-3.45;76.19;101430.33;1778303;80;25675;-50
2020/12/02 00:03:54;;;;;;;82.62;34.03;;;;;;;-3.47;76.24;101430.52;1778539;80;26413;-55
2020/12/02 00:06:22;;;;;;;81.20;34.67;;;;;;;-3.47;76.23;101431.84;1777511;80;25793;-60
2020/12/02 00:08:59;;;;;;;83.62;37.53;;;;;;;-3.49;76.21;101436.51;1778677;80;25593;-52
2020/12/02 00:11:28;;;;;;;79.72;32.63;;;;;;;-3.50;76.25;101442.80;1778690;80;26196;-58
2020/12/02 00:14:04;;;;;;;81.42;33.80;;;;;;;-3.51;76.24;101439.01;1778571;80;25696;-51
2020/12/02 00:16:32;;;;;;;71.72;30.35;;;;;;;-3.52;76.38;101439.52;1778461;80;25727;-55
2020/12/02 00:19:00;;;;;;;79.53;33.02;;;;;;;-3.52;76.33;101437.36;1778593;80;25556;-52
2020/12/02 00:21:31;;;;;;;75.90;30.55;;;;;;;-3.53;76.40;101437.06;1778566;80;26029;-55
2020/12/02 00:23:58;;;;;;;77.30;32.38;;;;;;;-3.54;76.26;101435.41;1778548;80;26735;-52
2020/12/02 00:26:27;;;;;;;78.95;31.73;;;;;;;-3.57;76.32;101433.97;1778516;80;25789;-51
2020/12/02 00:28:56;;;;;;;75.47;31.20;;;;;;;-3.57;76.22;101436.62;1778823;80;25700;-50
2020/12/02 00:31:23;;;;;;;75.37;31.50;;;;;;;-3.62;76.15;101435.84;1778636;80;25690;-51
2020/12/02 00:33:50;;;;;;;76.35;29.87;;;;;;;-3.62;76.16;101437.17;1778697;80;25968;-50
2020/12/02 00:36:17;;;;;;;75.75;31.75;;;;;;;-3.64;76.14;101430.45;1778580;80;26598;-51
2020/12/02 00:38:44;;;;;;;76.62;31.27;;;;;;;-3.66;76.25;101436.40;1778482;80;25614;-51
2020/12/02 00:41:12;;;;;;;77.40;32.03;;;;;;;-3.66;76.19;101439.05;1778710;80;26428;-51
2020/12/02 00:43:39;;;;;;;71.55;30.48;;;;;;;-3.68;76.30;101434.45;1778438;80;25659;-51
2020/12/02 00:46:06;;;;;;;77.55;31.40;;;;;;;-3.71;76.30;101441.43;1778644;80;25722;-51
2020/12/02 00:48:34;;;;;;;80.72;30.70;;;;;;;-3.73;76.25;101440.80;1778574;80;26235;-48
2020/12/02 00:51:04;;;;;;;70.03;28.67;;;;;;;-3.75;76.23;101440.98;1751973;80;26321;-51
2020/12/02 00:53:34;;;;;;;64.90;28.12;;;;;;;-3.77;76.22;101436.39;1778539;80;25620;-50
2020/12/02 00:56:02;;;;;;;72.05;29.92;;;;;;;-3.80;76.28;101434.95;1778836;80;26006;-52
2020/12/02 00:59:00;;;;;;;81.95;30.17;;;;;;;-3.79;76.27;101430.48;1778614;80;25656;-49
2020/12/02 01:01:47;;;;;;;67.47;28.67;;;;;;;-3.82;76.34;101430.84;1778166;80;27124;-59
2020/12/02 01:04:18;;;;;;;80.67;31.33;;;;;;;-3.87;76.41;101430.58;1777478;80;26202;-56
2020/12/02 01:06:48;;;;;;;72.47;30.40;;;;;;;-3.89;76.37;101432.08;1778568;80;25664;-52
2020/12/02 01:09:16;;;;;;;65.67;28.25;;;;;;;-3.91;76.33;101430.13;1778671;80;34538;-55
2020/12/02 01:11:44;;;;;;;71.77;28.87;;;;;;;-3.93;76.45;101437.44;1778552;80;25689;-54
2020/12/02 01:14:15;;;;;;;;;;;;;;;-3.97;76.52;101428.22;1781304;80;25766;-51
2020/12/02 01:16:47;;;;;;;65.45;26.45;;;;;;;-3.98;76.55;101426.59;1765374;81;25707;-56
2020/12/02 01:19:18;;;;;;;67.30;27.58;;;;;;;-4.01;76.67;101430.92;1777629;80;25652;-55
2020/12/02 01:21:55;;;;;;;66.47;25.72;;;;;;;-4.03;76.86;101425.00;1778685;80;25700;-53
2020/12/02 01:24:29;;;;;;;62.67;27.95;;;;;;;-4.05;76.75;101429.63;1778629;80;25711;-53
2020/12/02 01:27:13;;;;;;;65.20;28.17;;;;;;;-4.08;76.92;101427.38;1775446;80;25745;-54
2020/12/02 01:29:42;;;;;;;59.38;25.85;;;;;;;-4.11;77.03;101429.06;1778491;80;25620;-54
2020/12/02 01:32:10;;;;;;;68.55;27.77;;;;;;;-4.14;77.00;101428.44;1778673;80;25767;-52
2020/12/02 01:34:37;;;;;;;66.65;26.25;;;;;;;-4.16;76.99;101433.06;1778476;80;25692;-51
2020/12/02 01:37:24;;;;;;;65.70;25.30;;;;;;;-4.19;77.13;101424.20;1778611;80;25639;-52
2020/12/02 01:40:17;;;;;;;67.62;26.87;;;;;;;-4.18;77.05;101426.34;1778671;80;25764;-52
2020/12/02 01:42:49;;;;;;;65.65;27.90;;;;;;;-4.19;77.12;101425.52;1778440;80;26045;-58
2020/12/02 01:45:21;;;;;;;59.83;25.80;;;;;;;-4.20;77.13;101422.55;1777020;80;26502;-55
2020/12/02 01:48:08;;;;;;;57.10;25.17;;;;;;;-4.20;77.29;101417.78;1777530;80;25652;-52
2020/12/02 01:50:46;;;;;;;54.70;24.27;;;;;;;-4.20;77.36;101413.81;1775566;80;25932;-52
2020/12/02 01:53:20;;;;;;;63.15;26.97;;;;;;;-4.22;77.54;101410.03;1775642;80;26262;-53
2020/12/02 01:55:59;;;;;;;59.33;25.00;;;;;;;-4.21;77.35;101413.48;1775335;80;26290;-56
2020/12/02 01:58:40;;;;;;;55.43;23.77;;;;;;;-4.22;77.24;101410.52;1774464;80;25627;-56
2020/12/02 02:01:12;;;;;;;58.85;24.92;;;;;;;-4.21;77.36;101404.23;1775479;80;25632;-53
2020/12/02 02:03:39;;;;;;;63.08;24.43;;;;;;;-4.23;77.19;101406.25;1775542;80;25679;-58
2020/12/02 02:06:17;;;;;;;54.93;23.95;;;;;;;-4.25;77.25;101397.18;1775424;80;25709;-55
2020/12/02 02:08:44;;;;;;;53.58;23.12;;;;;;;-4.25;77.27;101405.11;1775395;80;25626;-55
2020/12/02 02:11:16;;;;;;;56.63;22.87;;;;;;;-4.26;77.24;101405.28;1775416;80;25623;-57
2020/12/02 02:14:11;;;;;;;56.23;26.85;;;;;;;-4.26;77.36;101400.00;1775374;80;25708;-51
2020/12/02 02:16:45;;;;;;;51.73;22.27;;;;;;;-4.30;77.32;101394.78;1774865;80;25789;-54
2020/12/02 02:19:23;;;;;;;52.65;23.32;;;;;;;-4.34;77.42;101389.05;1775531;80;26054;-55
2020/12/02 02:21:54;;;;;;;53.65;22.52;;;;;;;-4.37;77.35;101394.18;1775504;80;25640;-54
2020/12/02 02:24:21;;;;;;;47.95;22.07;;;;;;;-4.36;77.47;101389.70;1775353;80;25675;-54
2020/12/02 02:26:54;;;;;;;53.78;22.25;;;;;;;-4.39;77.37;101389.59;1775312;80;25617;-56
2020/12/02 02:29:30;;;;;;;52.17;20.92;;;;;;;-4.40;77.56;101393.22;1775534;80;25780;-56
2020/12/02 02:32:13;;;;;;;45.20;20.92;;;;;;;-4.42;77.33;101389.14;1746935;80;25794;-52
2020/12/02 02:34:48;;;;;;;48.55;20.92;;;;;;;-4.45;77.43;101387.66;1775436;80;25656;-52
2020/12/02 02:37:17;;;;;;;56.55;21.33;;;;;;;-4.44;77.25;101397.72;1774977;80;26261;-52
2020/12/02 02:39:45;;;;;;;49.95;20.88;;;;;;;-4.46;77.40;101392.65;1775595;80;25637;-51
2020/12/02 02:42:38;;;;;;;44.77;19.55;;;;;;;-4.47;77.31;101392.83;1775537;80;25227;-58
2020/12/02 02:45:16;;;;;;;49.83;19.35;;;;;;;-4.47;77.32;101400.23;1741563;80;26674;-58
2020/12/02 02:47:44;;;;;;;43.75;19.05;;;;;;;-4.48;77.35;101404.38;1774439;80;25736;-55
2020/12/02 02:50:16;;;;;;;41.95;18.98;;;;;;;-4.50;77.42;101404.05;1775477;80;25636;-54
2020/12/02 02:52:44;;;;;;;43.83;19.45;;;;;;;-4.52;77.37;101402.09;1775498;80;26277;-57
2020/12/02 02:55:21;;;;;;;45.15;21.05;;;;;;;-4.53;77.30;101396.52;1775517;80;25658;-57
2020/12/02 02:57:48;;;;;;;46.02;20.75;;;;;;;-4.55;77.49;101390.57;1775578;80;26678;-52
2020/12/02 03:00:29;;;;;;;43.58;20.20;;;;;;;-4.57;77.41;101389.13;1775407;80;26127;-54
2020/12/02 03:02:57;;;;;;;45.10;18.90;;;;;;;-4.58;77.37;101398.88;1775558;80;25712;-55
2020/12/02 03:05:24;;;;;;;47.80;20.52;;;;;;;-4.59;77.44;101397.73;1775385;80;25729;-56
2020/12/02 03:07:56;;;;;;;47.23;20.80;;;;;;;-4.60;77.42;101402.17;1775394;80;25739;-54
2020/12/02 03:10:28;;;;;;;43.33;19.45;;;;;;;-4.60;77.42;101399.53;1775442;80;25760;-55
2020/12/02 03:12:59;;;;;;;40.65;17.87;;;;;;;-4.62;77.34;101401.55;1775309;80;25638;-54
2020/12/02 03:15:25;;;;;;;40.03;17.98;;;;;;;-4.66;77.60;101402.92;1775288;80;25669;-53
2020/12/02 03:17:53;;;;;;;41.90;20.20;;;;;;;-4.69;77.57;101400.13;1775285;80;25371;-51
2020/12/02 03:20:43;;;;;;;42.88;19.67;;;;;;;-4.69;77.74;101405.41;1775320;80;25721;-54
2020/12/02 03:23:11;;;;;;;;;;;;;;;-4.71;77.55;101410.05;1778143;80;26172;-52
2020/12/02 03:25:40;;;;;;;37.42;17.62;;;;;;;-4.72;77.72;101404.95;1764949;81;25816;-51
2020/12/02 03:28:07;;;;;;;47.50;20.32;;;;;;;-4.74;77.71;101404.31;1759222;80;32469;-53
2020/12/02 03:30:34;;;;;;;43.30;19.62;;;;;;;-4.73;77.84;101406.78;1740839;81;25799;-51
2020/12/02 03:33:01;;;;;;;49.20;19.65;;;;;;;-4.72;77.96;101398.35;1737865;81;25306;-51
2020/12/02 03:35:28;;;;;;;47.05;19.87;;;;;;;-4.68;78.12;101399.65;1733870;82;26155;-54
2020/12/02 03:37:54;;;;;;;43.35;19.42;;;;;;;-4.65;78.20;101400.58;1738746;81;25692;-55
2020/12/02 03:40:21;;;;;;;47.78;19.62;;;;;;;-4.60;78.37;101395.58;1734191;81;25880;-56
2020/12/02 03:42:48;;;;;;;42.67;21.15;;;;;;;-4.55;78.39;101389.25;1770943;80;25679;-57
2020/12/02 03:45:14;;;;;;;42.55;20.85;;;;;;;-4.51;78.35;101393.70;1737063;81;26360;-56
2020/12/02 03:47:42;;;;;;;42.38;19.15;;;;;;;-4.47;78.31;101390.19;1736384;81;26164;-52
2020/12/02 03:50:10;;;;;;;46.30;20.68;;;;;;;-4.43;78.36;101397.55;1736665;81;25765;-55
2020/12/02 03:52:37;;;;;;;51.77;21.48;;;;;;;-4.39;78.36;101393.55;1732356;81;26487;-52
2020/12/02 03:55:06;;;;;;;42.43;19.70;;;;;;;-4.34;78.26;101394.33;1738230;81;25999;-53
2020/12/02 03:57:33;;;;;;;32.98;13.62;;;;;;;-4.33;78.16;101392.80;1738589;81;25711;-54
2020/12/02 04:00:01;;;;;;;37.83;18.85;;;;;;;-4.30;78.16;101395.59;1739148;81;26049;-54
2020/12/02 04:02:28;;;;;;;45.65;20.52;;;;;;;-4.26;78.16;101396.05;1740644;81;25652;-55
2020/12/02 04:04:55;;;;;;;41.48;19.40;;;;;;;-4.24;78.24;101394.03;1734770;81;25694;-56
2020/12/02 04:07:22;;;;;;;41.18;19.35;;;;;;;-4.23;78.19;101388.56;1736963;81;25775;-57
2020/12/02 04:09:48;;;;;;;42.13;19.02;;;;;;;-4.22;78.44;101383.61;1767491;80;25651;-56
2020/12/02 04:12:15;;;;;;;38.10;18.32;;;;;;;-4.21;78.16;101385.23;1737058;81;26675;-57
2020/12/02 04:14:41;;;;;;;44.50;19.70;;;;;;;-4.20;78.27;101384.23;1739388;81;25839;-51
2020/12/02 04:17:08;;;;;;;39.58;18.87;;;;;;;-4.17;78.14;101382.55;1736979;81;25779;-53
2020/12/02 04:19:35;;;;;;;43.65;19.77;;;;;;;-4.13;78.12;101389.09;1766673;80;25931;-56
2020/12/02 04:22:01;;;;;;;39.58;18.48;;;;;;;-4.08;78.07;101390.38;1736691;81;26144;-56
2020/12/02 04:24:28;;;;;;;36.90;17.60;;;;;;;-4.03;78.04;101394.61;1734265;81;25851;-55
2020/12/02 04:26:55;;;;;;;36.68;18.42;;;;;;;-4.01;77.99;101390.77;1735050;82;25781;-55
2020/12/02 04:29:22;;;;;;;37.75;17.60;;;;;;;-3.98;77.89;101392.23;1739164;81;25684;-57
2020/12/02 04:31:48;;;;;;;38.42;18.77;;;;;;;-3.94;77.84;101402.23;1734289;82;25790;-55
2020/12/02 04:34:15;;;;;;;35.95;17.20;;;;;;;-3.92;77.64;101398.08;1734154;82;26295;-53
2020/12/02 04:36:48;;;;;;;35.45;17.02;;;;;;;-3.90;77.53;101400.03;1746922;81;26172;-51
2020/12/02 04:39:16;;;;;;;35.05;17.40;;;;;;;-3.88;77.56;101392.75;1736549;81;25860;-54
2020/12/02 04:41:43;;;;;;;33.15;18.32;;;;;;;-3.94;77.34;101383.72;1778423;80;25632;-54
2020/12/02 04:44:12;;;;;;;35.75;17.65;;;;;;;-3.81;77.46;101401.58;1747500;82;25630;-51
2020/12/02 04:46:39;;;;;;;28.57;14.70;;;;;;;-3.77;77.43;101400.19;1747542;82;25683;-53
2020/12/02 04:49:20;;;;;;;35.23;17.50;;;;;;;-3.73;77.27;101400.63;1747383;82;25737;-51
2020/12/02 04:51:50;;;;;;;34.05;16.55;;;;;;;-3.73;77.10;101395.34;1747545;81;25672;-54
2020/12/02 04:54:16;;;;;;;33.25;17.70;;;;;;;-3.71;77.02;101398.64;1718457;82;25659;-57
2020/12/02 04:56:46;;;;;;;32.88;17.50;;;;;;;-3.68;77.11;101398.23;1747706;82;25639;-56
2020/12/02 04:59:13;;;;;;;34.55;17.70;;;;;;;-3.65;76.81;101391.77;1747808;81;25683;-58
2020/12/02 05:01:53;;;;;;;29.15;15.48;;;;;;;-3.65;76.69;101394.41;1747722;82;26086;-57
2020/12/02 05:04:27;;;;;;;36.95;17.70;;;;;;;-3.66;76.65;101387.48;1747771;81;25652;-56
2020/12/02 05:07:16;;;;;;;36.30;17.90;;;;;;;-3.63;76.76;101391.07;1747617;82;25623;-56
2020/12/02 05:10:00;;;;;;;35.10;17.30;;;;;;;-3.61;76.83;101393.86;1747967;82;25711;-57
2020/12/02 05:12:31;;;;;;;33.18;16.48;;;;;;;-3.55;76.78;101395.44;1747691;82;25740;-55
2020/12/02 05:15:24;;;;;;;37.33;17.80;;;;;;;-3.51;76.79;101401.98;1747614;82;27061;-56
2020/12/02 05:18:17;;;;;;;36.70;19.02;;;;;;;-3.50;76.67;101395.18;1748329;81;25841;-56
2020/12/02 05:21:05;;;;;;;31.65;16.27;;;;;;;-3.49;76.32;101392.86;1752652;81;25690;-55
2020/12/02 05:23:32;;;;;;;33.92;16.90;;;;;;;-3.52;76.21;101398.52;1750036;81;25690;-56
2020/12/02 05:25:58;;;;;;;32.65;16.20;;;;;;;-3.52;76.18;101398.52;1752724;81;26316;-55
2020/12/02 05:28:30;;;;;;;36.85;17.85;;;;;;;-3.52;76.23;101404.30;1752645;81;27083;-57
2020/12/02 05:31:14;;;;;;;35.13;17.95;;;;;;;-3.50;76.24;101399.66;1752669;81;25652;-57
2020/12/02 05:33:41;;;;;;;31.55;16.60;;;;;;;-3.46;76.33;101398.27;1752856;81;26282;-57
2020/12/02 05:36:33;;;;;;;38.63;17.02;;;;;;;-3.45;76.16;101403.37;1752695;81;25666;-55
2020/12/02 05:39:35;;;;;;;38.25;16.77;;;;;;;-3.43;76.17;101392.09;1752868;81;25583;-57
2020/12/02 05:42:07;;;;;;;36.15;18.12;;;;;;;-3.42;76.20;101393.73;1752823;81;26229;-54
2020/12/02 05:44:37;;;;;;;31.00;16.90;;;;;;;-3.38;76.08;101402.11;1722144;81;25657;-57
2020/12/02 05:47:15;;;;;;;34.03;17.05;;;;;;;-3.35;76.06;101398.25;1761429;80;25672;-56
2020/12/02 05:49:54;;;;;;;34.48;17.25;;;;;;;-3.34;75.97;101394.61;1766173;80;25640;-57
2020/12/02 05:52:32;;;;;;;33.78;15.93;;;;;;;-3.34;75.86;101395.42;1786283;80;26352;-57
2020/12/02 05:55:31;;;;;;;26.23;15.23;;;;;;;-3.34;75.70;101407.33;1786105;79;25798;-54
2020/12/02 05:58:06;;;;;;;28.47;14.90;;;;;;;-3.35;75.66;101402.22;1786056;79;25638;-55
2020/12/02 06:00:33;;;;;;;34.83;15.05;;;;;;;-3.34;75.66;101408.65;1786080;80;25639;-55
2020/12/02 06:03:01;;;;;;;34.23;15.75;;;;;;;-3.33;75.52;101409.48;1786184;80;25651;-55
2020/12/02 06:05:29;;;;;;;35.10;18.15;;;;;;;-3.36;75.32;101414.64;1786063;78;26284;-56
2020/12/02 06:08:05;;;;;;;30.17;15.78;;;;;;;-3.36;75.48;101415.16;1785986;80;26418;-56
2020/12/02 06:10:46;;;;;;;32.98;16.20;;;;;;;-3.35;75.58;101417.61;1785954;80;25595;-58
2020/12/02 06:13:40;;;;;;;33.90;16.35;;;;;;;-3.31;75.63;101420.19;1785996;80;25649;-57
2020/12/02 06:16:07;;;;;;;34.10;16.95;;;;;;;-3.28;75.64;101420.33;1786013;80;25658;-55
2020/12/02 06:18:37;;;;;;;33.50;17.23;;;;;;;-3.24;75.42;101418.92;1757227;80;25839;-57
2020/12/02 06:21:04;;;;;;;30.08;16.35;;;;;;;-3.24;75.25;101421.57;1786159;79;25924;-57
2020/12/02 06:23:48;;;;;;;31.97;15.48;;;;;;;-3.24;75.32;101416.28;1785969;79;25635;-57
2020/12/02 06:26:20;;;;;;;32.63;15.50;;;;;;;-3.21;75.39;101418.04;1785229;80;25650;-57
2020/12/02 06:28:49;;;;;;;29.75;15.10;;;;;;;-3.21;75.21;101415.39;1779625;80;25698;-56
2020/12/02 06:31:26;;;;;;;30.20;15.15;;;;;;;-3.20;75.14;101421.02;1786283;80;25582;-54
2020/12/02 06:33:54;;;;;;;29.18;15.25;;;;;;;-3.20;74.99;101422.84;1786079;79;27370;-54
2020/12/02 06:36:32;;;;;;;28.65;14.93;;;;;;;-3.20;74.96;101430.27;1785984;80;25709;-54
2020/12/02 06:39:16;;;;;;;32.00;16.62;;;;;;;-3.18;74.88;101432.73;1785515;80;25785;-55
2020/12/02 06:41:45;;;;;;;29.90;16.07;;;;;;;-3.17;74.79;101435.67;1785606;80;25701;-56
2020/12/02 06:44:18;;;;;;;27.37;15.28;;;;;;;-3.18;74.64;101428.77;1785951;80;25279;-56
2020/12/02 06:47:19;;;;;;;24.40;12.82;;;;;;;-3.20;74.55;101428.95;1786036;80;25914;-57
2020/12/02 06:49:50;;;;;;;30.08;14.35;;;;;;;-3.19;74.60;101433.22;1777123;78;26087;-55
2020/12/02 06:52:31;;;;;;;27.37;15.80;;;;;;;-3.19;74.67;101429.25;1763731;79;25870;-54
2020/12/02 06:55:02;;;;;;;33.15;15.35;;;;;;;-3.18;74.75;101424.80;1796945;79;25833;-55
2020/12/02 06:57:30;;;;;;;28.35;14.83;;;;;;;-3.14;74.68;101427.88;1798468;79;25676;-55
2020/12/02 07:00:02;;;;;;;29.35;15.43;;;;;;;-3.12;74.68;101426.66;1734291;81;26026;-53
2020/12/02 07:02:53;;;;;;;31.07;16.25;;;;;;;-3.09;74.75;101426.28;1763082;81;25912;-54
2020/12/02 07:05:38;;;;;;;33.28;15.88;;;;;;;-3.07;74.79;101425.59;1775385;80;26287;-52
2020/12/02 07:08:13;;;;;;;31.52;14.93;;;;;;;-3.03;74.69;101425.53;1775669;80;25675;-56
2020/12/02 07:10:42;;;;;;;29.32;16.48;;;;;;;-2.99;74.69;101427.81;1770930;80;25643;-50
2020/12/02 07:13:15;;;;;;;30.82;15.68;;;;;;;-2.97;74.54;101429.75;1776633;80;27238;-54
2020/12/02 07:15:44;;;;;;;31.65;15.48;;;;;;;-2.95;74.45;101435.16;1775562;80;25615;-56
2020/12/02 07:18:17;;;;;;;32.50;15.78;;;;;;;-2.94;74.29;101432.02;1783922;80;26243;-54
2020/12/02 07:20:48;;;;;;;27.45;14.13;;;;;;;-2.96;74.04;101428.73;1782905;80;26246;-51
2020/12/02 07:23:21;;;;;;;32.33;16.42;;;;;;;-2.97;74.06;101433.21;1783925;80;26254;-52
2020/12/02 07:25:51;;;;;;;31.62;15.98;;;;;;;-2.97;74.15;101438.50;1784030;80;26713;-53
2020/12/02 07:28:21;;;;;;;30.62;16.07;;;;;;;-2.94;74.23;101430.70;1783807;80;25639;-51
2020/12/02 07:30:49;;;;;;;27.42;16.20;;;;;;;-2.94;74.08;101436.00;1781969;80;25762;-52
2020/12/02 07:33:27;;;;;;;32.03;15.20;;;;;;;-2.94;74.17;101439.45;1775170;80;25746;-52
2020/12/02 07:36:14;;;;;;;29.67;16.17;;;;;;;-2.92;74.20;101434.78;1780050;80;25601;-54
2020/12/02 07:38:43;;;;;;;28.23;15.68;;;;;;;-2.90;74.20;101431.94;1783832;80;25751;-52
2020/12/02 07:41:19;;;;;;;33.00;17.02;;;;;;;-2.91;73.57;101436.43;1783908;80;25579;-53
2020/12/02 07:43:49;;;;;;;29.63;15.72;;;;;;;-2.92;73.74;101432.13;1783837;80;25758;-49
2020/12/02 07:46:21;;;;;;;31.15;15.13;;;;;;;-2.92;73.72;101428.16;1783837;80;26323;-52
2020/12/02 07:48:51;;;;;;;27.20;14.98;;;;;;;-2.92;73.42;101444.56;1783794;80;25697;-54
2020/12/02 07:51:28;;;;;;;29.63;14.58;;;;;;;-2.95;73.50;101438.31;1782996;80;26177;-53
2020/12/02 07:54:18;;;;;;;26.65;14.85;;;;;;;-2.97;73.15;101437.70;1784351;80;25708;-55
2020/12/02 07:56:48;;;;;;;27.25;14.23;;;;;;;-2.96;73.42;101441.97;1783521;80;25681;-55
2020/12/02 07:59:25;;;;;;;30.02;15.40;;;;;;;-2.95;73.62;101441.77;1784651;80;25580;-55
2020/12/02 08:02:06;;;;;;;32.85;16.30;;;;;;;-2.93;73.61;101438.94;1783348;80;26050;-57
2020/12/02 08:04:53;;;;;;;27.35;14.65;;;;;;;-2.88;73.72;101441.34;1780963;80;26197;-56
2020/12/02 08:07:20;;;;;;;26.95;14.15;;;;;;;-2.82;73.87;101438.43;1780780;80;25632;-57
2020/12/02 08:09:55;;;;;;;26.15;14.15;;;;;;;-2.80;73.41;101433.75;1752346;80;25595;-56
2020/12/02 08:12:32;;;;;;;28.32;15.58;;;;;;;-2.80;73.20;101432.95;1780786;80;25746;-56
2020/12/02 08:15:11;;;;;;;26.65;14.93;;;;;;;-2.79;73.21;101425.30;1780961;80;25657;-55
2020/12/02 08:17:44;;;;;;;27.90;14.98;;;;;;;-2.77;73.32;101433.37;1780937;80;25757;-56
2020/12/02 08:20:31;;;;;;;33.20;16.02;;;;;;;-2.74;73.14;101433.00;1777744;80;25626;-55
2020/12/02 08:23:03;;;;;;;28.20;14.70;;;;;;;-2.76;73.04;101433.67;1796837;79;26522;-57
2020/12/02 08:25:38;;;;;;;23.98;13.50;;;;;;;-2.73;72.85;101437.27;1777065;80;25614;-55
2020/12/02 08:28:39;;;;;;;23.83;13.33;;;;;;;-2.67;73.01;101453.72;1868750;76;31907;-57
2020/12/02 08:31:23;;;;;;;25.62;13.43;;;;;;;-2.75;72.70;101442.45;1832381;76;25903;-57
2020/12/02 08:34:26;;;;;;;23.70;12.70;;;;;;;-2.75;72.60;101437.16;1819030;78;25838;-54
2020/12/02 08:37:35;;;;;;;23.85;12.70;;;;;;;-2.75;72.62;101435.83;1794653;78;25759;-54
2020/12/02 08:40:28;;;;;;;28.25;13.75;;;;;;;-2.73;72.51;101436.45;1821845;78;25649;-52
2020/12/02 08:43:19;;;;;;;25.15;14.05;;;;;;;-2.73;72.66;101447.86;1823747;78;25612;-57
2020/12/02 08:46:09;;;;;;;26.05;12.78;;;;;;;-2.71;72.29;101442.38;1802241;78;25813;-57
2020/12/02 08:48:43;;;;;;;22.82;13.48;;;;;;;-2.71;72.35;101442.38;1815568;78;25819;-58
2020/12/02 08:51:14;;;;;;;24.82;14.15;;;;;;;-2.71;72.34;101432.59;1822700;78;25751;-58
2020/12/02 08:53:42;;;;;;;24.52;14.03;;;;;;;-2.68;72.42;101436.18;1810572;78;25736;-57
2020/12/02 08:56:34;;;;;;;25.95;14.53;;;;;;;-2.64;72.51;101426.02;1826360;77;25839;-55
2020/12/02 08:59:05;;;;;;;23.70;13.72;;;;;;;-2.60;72.59;101431.77;1825158;77;25685;-56
2020/12/02 09:01:31;;;;;;;27.32;15.30;;;;;;;-2.65;72.27;101405.34;1817147;78;25705;-52
2020/12/02 09:03:58;;;;;;;24.85;13.60;;;;;;;-2.54;72.34;101421.70;1817169;77;25597;-54
2020/12/02 09:06:25;;;;;;;24.10;14.15;;;;;;;-2.55;71.98;101414.79;1822736;77;25732;-56
2020/12/02 09:08:52;;;;;;;29.35;14.65;;;;;;;-2.53;72.13;101411.43;1817894;78;25814;-55
2020/12/02 09:11:27;;;;;;;22.95;13.50;;;;;;;-2.51;72.03;101413.37;1811746;78;25680;-57
2020/12/02 09:13:55;;;;;;;24.05;12.98;;;;;;;-2.52;71.14;101403.29;1825566;77;26296;-57
2020/12/02 09:16:30;;;;;;;25.95;14.13;;;;;;;-2.49;71.89;101398.09;1805490;78;25677;-54
2020/12/02 09:18:57;;;;;;;25.80;14.38;;;;;;;-2.49;71.48;101400.74;1794989;78;25752;-57
2020/12/02 09:21:27;;;;;;;24.52;14.58;;;;;;;-2.46;71.75;101397.20;1818829;78;25735;-53
2020/12/02 09:23:56;;;;;;;25.95;14.50;;;;;;;-2.42;71.86;101389.67;1817918;78;25656;-57
2020/12/02 09:26:26;;;;;;;25.88;13.53;;;;;;;-2.37;71.88;101392.55;1806193;77;26269;-57
2020/12/02 09:28:53;;;;;;;;;;;;;;;-2.32;71.74;101398.08;1820332;77;25661;-56
2020/12/02 09:31:22;;;;;;;23.02;12.82;;;;;;;-2.28;71.33;101391.91;1816547;78;25685;-57
2020/12/02 09:33:51;;;;;;;24.02;14.07;;;;;;;-2.30;71.16;101384.63;1813388;77;25668;-53
2020/12/02 09:36:19;;;;;;;26.75;14.20;;;;;;;-2.31;70.94;101383.02;1803585;78;26155;-55
2020/12/02 09:38:49;;;;;;;28.10;15.40;;;;;;;-2.29;71.26;101377.81;1816291;78;25688;-56
2020/12/02 09:41:52;;;;;;;30.35;14.95;;;;;;;-2.24;71.31;101371.12;1817384;78;25763;-57
2020/12/02 09:44:29;;;;;;;25.02;14.00;;;;;;;-2.21;71.40;101370.22;1804514;78;25612;-57
2020/12/02 09:47:13;;;;;;;24.50;14.90;;;;;;;-2.19;71.06;101360.75;1818247;78;25767;-53
2020/12/02 09:49:43;;;;;;;26.62;14.80;;;;;;;-2.18;70.85;101355.73;1803235;78;25706;-51
2020/12/02 09:52:15;;;;;;;28.35;15.32;;;;;;;-2.17;70.75;101352.08;1795925;78;26325;-54
2020/12/02 09:54:46;;;;;;;27.10;14.33;;;;;;;-2.16;70.68;101349.72;1807851;78;25776;-55
2020/12/02 09:57:24;;;;;;;27.17;15.13;;;;;;;-2.15;70.80;101341.57;1814166;77;25817;-57
2020/12/02 09:59:53;;;;;;;28.40;15.40;;;;;;;-2.14;70.87;101341.89;1847366;77;26405;-52
2020/12/02 10:02:37;;;;;;;26.00;14.68;;;;;;;-2.10;70.68;101345.77;1822898;77;25771;-54
2020/12/02 10:05:30;;;;;;;25.92;14.50;;;;;;;-2.12;70.37;101329.25;1809430;78;26957;-57
2020/12/02 10:08:41;;;;;;;27.90;15.58;;;;;;;-2.10;70.51;101330.38;1795396;78;25658;-57
2020/12/02 10:11:30;;;;;;;25.72;15.05;;;;;;;-2.08;70.44;101327.02;1818304;78;25688;-57
2020/12/02 10:14:11;;;;;;;24.80;14.80;;;;;;;-2.07;70.68;101322.84;1806234;78;25779;-59
2020/12/02 10:17:03;;;;;;;31.80;17.45;;;;;;;-2.02;70.52;101320.12;1814917;78;25684;-52
2020/12/02 10:19:44;;;;;;;24.20;13.70;;;;;;;-2.02;70.25;101317.47;1810841;78;25782;-53
2020/12/02 10:22:25;;;;;;;28.55;16.12;;;;;;;-2.04;69.90;101317.66;1801181;78;25733;-53
2020/12/02 10:25:32;;;;;;;23.35;13.65;;;;;;;-2.01;70.47;101317.75;1817532;78;26318;-57
2020/12/02 10:28:29;;;;;;;27.95;14.63;;;;;;;-1.96;69.92;101314.83;1803431;78;25728;-53
2020/12/02 10:31:24;;;;;;;24.70;13.90;;;;;;;-1.99;69.63;101311.73;1803180;78;25781;-55
2020/12/02 10:34:22;;;;;;;21.93;13.30;;;;;;;-2.00;70.15;101304.81;1810325;78;27079;-54
2020/12/02 10:36:54;;;;;;;22.22;12.58;;;;;;;-1.97;70.13;101306.56;1811440;78;26305;-60
2020/12/02 10:39:32;;;;;;;22.73;14.18;;;;;;;-1.99;69.97;101299.31;1816285;78;25624;-56
2020/12/02 10:42:13;;;;;;;24.98;13.65;;;;;;;-1.97;69.90;101308.41;1793460;78;25736;-54
2020/12/02 10:45:12;;;;;;;21.70;12.90;;;;;;;-1.95;70.18;101301.05;1807106;78;25639;-54
2020/12/02 10:48:22;;;;;;;22.27;13.35;;;;;;;-1.92;70.01;101303.31;1814585;76;26754;-55
2020/12/02 10:50:51;;;;;;;24.92;13.30;;;;;;;-1.91;69.87;101300.95;1852635;77;25730;-57
2020/12/02 10:53:24;;;;;;;22.30;12.85;;;;;;;-1.86;69.63;101301.16;1835348;77;32933;-55
2020/12/02 10:55:52;;;;;;;22.93;11.88;;;;;;;-1.87;69.54;101287.61;1799174;78;25752;-55
2020/12/02 10:58:29;;;;;;;21.80;13.05;;;;;;;-1.85;68.88;101292.72;1817435;78;25681;-54
2020/12/02 11:00:59;;;;;;;24.00;12.60;;;;;;;-1.85;69.11;101289.55;1822106;77;25795;-56
2020/12/02 11:03:33;;;;;;;22.60;13.80;;;;;;;-1.80;69.69;101292.41;1814480;78;25685;-54
2020/12/02 11:06:32;;;;;;;22.15;11.55;;;;;;;-1.79;68.87;101282.61;1810428;78;25789;-54
2020/12/02 11:09:28;;;;;;;21.15;11.18;;;;;;;-1.81;68.95;101277.50;1810551;77;25613;-57
2020/12/02 11:12:25;;;;;;;21.77;11.35;;;;;;;-1.79;68.63;101276.78;1815402;77;25620;-53
2020/12/02 11:15:19;;;;;;;26.12;13.78;;;;;;;-1.84;68.68;101270.47;1815182;78;25763;-57
2020/12/02 11:18:13;;;;;;;19.35;11.83;;;;;;;-1.79;68.73;101268.02;1817631;78;25664;-57
2020/12/02 11:20:54;;;;;;;23.18;12.98;;;;;;;-1.75;69.17;101268.75;1814601;78;25754;-58
2020/12/02 11:23:46;;;;;;;21.52;12.07;;;;;;;-1.67;68.74;101266.39;1816099;77;26330;-59
2020/12/02 11:26:30;;;;;;;22.82;12.58;;;;;;;-1.66;68.61;101274.66;1800973;77;25709;-56
2020/12/02 11:29:01;;;;;;;23.05;12.80;;;;;;;-1.66;68.10;101272.53;1809682;77;26897;-56
2020/12/02 11:31:50;;;;;;;18.87;11.68;;;;;;;-1.69;67.87;101272.41;1811977;77;25784;-56
2020/12/02 11:34:44;;;;;;;21.37;12.50;;;;;;;-1.73;68.00;101268.55;1786046;78;25710;-55
2020/12/02 11:37:38;;;;;;;23.15;12.30;;;;;;;-1.78;68.02;101262.52;1782753;78;25991;-54
2020/12/02 11:40:15;;;;;;;21.12;12.73;;;;;;;-1.77;68.44;101260.67;1773237;79;25908;-56
2020/12/02 11:43:06;;;;;;;23.15;13.08;;;;;;;-1.78;68.16;101255.88;1779299;78;26683;-62
2020/12/02 11:45:37;;;;;;;25.08;14.53;;;;;;;-1.77;68.38;101254.88;1791253;78;25712;-60
2020/12/02 11:48:29;;;;;;;23.85;14.38;;;;;;;-1.78;67.91;101240.48;1743400;80;25832;-56